createdAt,value
2023-05-16T05:02:27.316Z,9.20
2023-05-16T05:12:35.021Z,9.20
2023-05-16T05:17:40.106Z,9.30
2023-05-16T05:22:43.785Z,9.40
2023-05-16T05:27:47.607Z,9.50
2023-05-16T05:32:53.413Z,9.60
2023-05-16T05:43:00.921Z,9.70
2023-05-16T05:48:06.353Z,9.80
2023-05-16T05:53:10.071Z,9.90
2023-05-16T05:58:13.612Z,10.10
2023-05-16T06:03:18.667Z,10.10
2023-05-16T06:08:22.324Z,10.20
2023-05-16T06:13:25.962Z,10.30
2023-05-16T06:18:31.070Z,10.50
2023-05-16T06:23:35.837Z,10.60
2023-05-16T06:28:39.460Z,10.80
2023-05-16T06:33:44.449Z,11.10
2023-05-16T06:38:48.004Z,11.20
2023-05-16T06:43:51.758Z,11.40
2023-05-16T06:48:56.815Z,11.50
2023-05-16T06:54:02.840Z,11.60
2023-05-16T06:59:07.931Z,11.80
2023-05-16T07:04:13.020Z,11.90
2023-05-16T07:09:16.838Z,12.10
2023-05-16T07:14:20.530Z,12.20
2023-05-16T07:19:25.973Z,12.40
2023-05-16T07:24:29.788Z,12.40
2023-05-16T07:29:33.390Z,12.60
2023-05-16T07:34:38.403Z,12.80
2023-05-16T07:39:42.185Z,12.90
2023-05-16T07:44:46.251Z,13.10
2023-05-16T07:49:51.364Z,13.30
2023-05-16T07:54:55.090Z,13.50
2023-05-16T07:59:59.025Z,13.80
2023-05-16T08:05:04.089Z,14.00
2023-05-16T08:10:09.173Z,14.20
2023-05-16T08:15:13.820Z,14.40
2023-05-16T08:20:18.765Z,14.70
2023-05-16T08:25:22.651Z,15.00
2023-05-16T08:30:27.742Z,15.30
2023-05-16T08:35:32.788Z,15.70
2023-05-16T08:40:36.670Z,16.10
2023-05-16T08:45:41.888Z,16.70
2023-05-16T08:50:48.138Z,17.40
2023-05-16T08:55:52.910Z,18.10
2023-05-16T09:00:57.298Z,18.80
2023-05-16T09:06:02.997Z,19.30
2023-05-16T09:11:06.912Z,19.70
2023-05-16T09:16:11.946Z,19.90
2023-05-16T09:21:17.971Z,20.40
2023-05-16T09:26:22.083Z,20.70
2023-05-16T09:31:27.595Z,21.20
2023-05-16T09:36:33.674Z,21.90
2023-05-16T09:41:37.561Z,22.50
2023-05-16T09:46:41.953Z,22.80
2023-05-16T09:51:47.215Z,23.30
2023-05-16T09:56:51.771Z,23.80
2023-05-16T10:01:55.941Z,24.40
2023-05-16T10:07:02.343Z,24.80
2023-05-16T10:12:09.521Z,25.10
2023-05-16T10:17:15.863Z,25.10
2023-05-16T10:22:22.261Z,25.00
2023-05-16T10:27:26.684Z,25.10
2023-05-16T10:32:30.724Z,24.80
2023-05-16T10:37:37.043Z,24.80
2023-05-16T10:42:40.759Z,24.90
2023-05-16T10:47:52.977Z,25.20
2023-05-16T10:52:58.517Z,25.20
2023-05-16T10:58:02.097Z,24.70
2023-05-16T11:03:09.862Z,24.00
2023-05-16T11:08:15.905Z,23.60
2023-05-16T11:13:26.145Z,23.20
2023-05-16T11:18:34.008Z,22.80
2023-05-16T11:23:39.086Z,23.10
2023-05-16T11:28:42.727Z,23.80
2023-05-16T11:33:48.071Z,24.50
2023-05-16T11:38:53.099Z,24.70
2023-05-16T11:43:56.675Z,25.20
2023-05-16T11:49:00.479Z,25.80
2023-05-16T11:54:06.171Z,25.90
2023-05-16T11:59:09.895Z,26.20
2023-05-16T12:04:15.124Z,26.80
2023-05-16T12:09:20.232Z,27.10
2023-05-16T12:14:24.401Z,27.50
2023-05-16T12:19:27.984Z,27.70
2023-05-16T12:24:33.515Z,27.90
2023-05-16T12:29:37.150Z,28.10
2023-05-16T12:34:40.794Z,27.90
2023-05-16T12:39:47.171Z,28.20
2023-05-16T12:44:50.861Z,28.20
2023-05-16T12:49:54.499Z,28.10
2023-05-16T12:54:59.832Z,27.70
2023-05-16T13:00:03.740Z,27.60
2023-05-16T13:05:08.555Z,27.60
2023-05-16T13:10:14.004Z,27.70
2023-05-16T13:15:17.900Z,27.90
2023-05-16T13:20:21.614Z,27.90
2023-05-16T13:25:27.057Z,27.90
2023-05-16T13:30:30.937Z,27.70
2023-05-16T13:35:34.740Z,27.60
2023-05-16T13:40:39.954Z,27.40
2023-05-16T13:45:44.223Z,27.40
2023-05-16T13:50:48.061Z,27.30
2023-05-16T13:55:53.118Z,27.10
2023-05-16T14:00:56.778Z,26.80
2023-05-16T14:06:00.509Z,26.70
2023-05-16T14:11:05.884Z,26.20
2023-05-16T14:16:10.376Z,25.70
2023-05-16T14:21:14.506Z,25.40
2023-05-16T14:26:22.702Z,25.20
2023-05-16T14:31:26.423Z,24.90
2023-05-16T14:36:30.066Z,24.30
2023-05-16T14:41:35.059Z,23.60
2023-05-16T14:46:38.709Z,23.40
2023-05-16T14:51:45.028Z,23.40
2023-05-16T14:56:50.128Z,23.00
2023-05-16T15:01:53.951Z,22.80
2023-05-16T15:06:57.641Z,22.60
2023-05-16T15:12:02.853Z,22.50
2023-05-16T15:17:08.903Z,22.30
2023-05-16T15:22:12.957Z,22.00
2023-05-16T15:27:17.982Z,21.90
2023-05-16T15:32:23.250Z,21.60
2023-05-16T15:37:27.261Z,21.20
2023-05-16T15:42:32.283Z,21.10
2023-05-16T15:47:35.974Z,20.90
2023-05-16T15:52:40.008Z,20.80
2023-05-16T15:57:45.018Z,20.60
2023-05-16T16:02:48.752Z,20.40
2023-05-16T16:07:52.430Z,20.30
2023-05-16T16:13:04.671Z,20.20
2023-05-16T16:18:08.344Z,20.00
2023-05-16T16:23:12.488Z,19.90
2023-05-16T16:28:17.672Z,19.80
2023-05-16T16:33:21.477Z,19.60
2023-05-16T16:38:25.125Z,19.60
2023-05-16T16:43:30.256Z,19.50
2023-05-16T16:48:35.096Z,19.50
2023-05-16T16:53:38.879Z,19.40
2023-05-16T16:58:44.129Z,19.30
2023-05-16T17:03:47.885Z,19.10
2023-05-16T17:08:51.697Z,19.00
2023-05-16T17:13:59.340Z,19.00
2023-05-16T17:19:04.598Z,18.90
2023-05-16T17:24:08.919Z,18.80
2023-05-16T17:29:13.915Z,18.60
2023-05-16T17:34:17.678Z,18.50
2023-05-16T17:39:21.620Z,18.40
2023-05-16T17:44:26.600Z,18.20
2023-05-16T17:49:30.357Z,18.10
2023-05-16T17:54:33.992Z,18.00
2023-05-16T17:59:39.299Z,17.90
2023-05-16T18:04:43.156Z,17.80
2023-05-16T18:09:46.897Z,17.70
2023-05-16T18:14:52.361Z,17.60
2023-05-16T18:19:56.297Z,17.50
2023-05-16T18:25:00.144Z,17.40
2023-05-16T18:30:06.823Z,17.30
2023-05-16T18:35:10.882Z,17.20
2023-05-16T18:40:15.045Z,17.10
2023-05-16T18:45:20.890Z,17.00
2023-05-16T18:50:24.680Z,16.90
2023-05-16T18:55:29.007Z,16.80
2023-05-16T19:00:34.414Z,16.80
2023-05-16T19:05:38.043Z,16.60
2023-05-16T19:10:41.858Z,16.60
2023-05-16T19:15:47.045Z,16.50
2023-05-16T19:20:52.511Z,16.40
2023-05-16T19:25:56.395Z,16.30
2023-05-16T19:31:01.605Z,16.20
2023-05-16T19:36:06.703Z,16.20
2023-05-16T19:41:10.321Z,16.10
2023-05-16T19:46:15.521Z,16.00
2023-05-16T19:51:29.555Z,15.80
2023-05-16T19:56:41.191Z,15.70
2023-05-16T20:01:46.160Z,15.50
2023-05-16T20:06:49.849Z,15.30
2023-05-16T20:11:53.777Z,15.20
2023-05-16T20:16:59.261Z,15.10
2023-05-16T20:22:02.922Z,14.90
2023-05-16T20:27:06.800Z,14.80
2023-05-16T20:32:11.883Z,14.70
2023-05-16T20:37:15.688Z,14.60
2023-05-16T20:42:19.368Z,14.60
2023-05-16T20:47:24.317Z,14.50
2023-05-16T20:52:27.966Z,14.50
2023-05-16T20:57:31.549Z,14.40
2023-05-16T21:02:36.546Z,14.40
2023-05-16T21:07:40.183Z,14.30
2023-05-16T21:12:43.805Z,14.20
2023-05-16T21:17:48.872Z,14.10
2023-05-16T21:22:52.549Z,14.00
2023-05-16T21:27:56.330Z,14.00
2023-05-16T21:33:01.524Z,13.90
2023-05-16T21:38:05.360Z,13.80
2023-05-16T21:43:09.219Z,13.70
2023-05-16T21:48:14.225Z,13.60
2023-05-16T21:53:19.114Z,13.50
2023-05-16T21:58:23.453Z,13.50
2023-05-16T22:03:28.569Z,13.40
2023-05-16T22:08:32.271Z,13.40
2023-05-16T22:13:35.880Z,13.30
2023-05-16T22:18:41.022Z,13.20
2023-05-16T22:23:44.728Z,13.10
2023-05-16T22:28:48.315Z,13.10
